| Date | Time | Temp. (oF) | Dew Point (oF) | Rel. Hum. (%) | Press. (in.) | Wind Dir. | Wind Speed (mph) | Hourly Rainfall (in.) |
|
|---|---|---|---|---|---|---|---|---|---|
| 1 | 02/06 | 00:00 | 28 | 24 | 86 | 30.48 | W | 2 | 0.00 |
| 2 | 02/05 | 23:00 | 31 | 26 | 84 | 30.47 | W | 0 | 0.00 |
| 3 | 02/05 | 22:00 | 33 | 27 | 79 | 30.47 | WSW | 1 | 0.00 |
| 4 | 02/05 | 21:00 | 36 | 28 | 73 | 30.46 | NW | 1 | 0.00 |
| 5 | 02/05 | 20:00 | 39 | 28 | 66 | 30.45 | NW | 1 | 0.00 |
| 6 | 02/05 | 19:00 | 42 | 29 | 60 | 30.44 | WSW | 1 | 0.00 |
| 7 | 02/05 | 18:00 | 45 | 28 | 53 | 30.41 | WNW | 4 | 0.00 |
| 8 | 02/05 | 17:00 | 51 | 29 | 43 | 30.39 | W | 3 | 0.00 |
| 9 | 02/05 | 16:00 | 52 | 28 | 41 | 30.38 | NW | 4 | 0.00 |
| 10 | 02/05 | 15:00 | 51 | 29 | 44 | 30.38 | WNW | 4 | 0.00 |
| 11 | 02/05 | 14:00 | 50 | 29 | 46 | 30.39 | NW | 4 | 0.00 |
| 12 | 02/05 | 13:00 | 48 | 29 | 48 | 30.41 | WNW | 5 | 0.00 |
| 13 | 02/05 | 12:00 | 46 | 27 | 48 | 30.43 | NNW | 5 | 0.00 |
| 14 | 02/05 | 11:00 | 44 | 26 | 51 | 30.44 | NNW | 7 | 0.00 |
| 15 | 02/05 | 10:00 | 40 | 26 | 58 | 30.44 | NNW | 4 | 0.00 |
| 16 | 02/05 | 09:00 | 36 | 25 | 65 | 30.42 | NW | 5 | 0.00 |
| 17 | 02/05 | 08:00 | 29 | 22 | 76 | 30.41 | W | 2 | 0.00 |
| 18 | 02/05 | 07:00 | 30 | 21 | 71 | 30.39 | WNW | 2 | 0.00 |
| 19 | 02/05 | 06:00 | 28 | 20 | 74 | 30.37 | WNW | 4 | 0.00 |
| 20 | 02/05 | 05:00 | 29 | 21 | 73 | 30.36 | W | 2 | 0.00 |
| 21 | 02/05 | 04:00 | 30 | 21 | 71 | 30.35 | WSW | 1 | 0.00 |
| 22 | 02/05 | 03:00 | 32 | 21 | 65 | 30.33 | W | 3 | 0.00 |
| 23 | 02/05 | 02:00 | 32 | 22 | 69 | 30.32 | W | 2 | 0.00 |
| 24 | 02/05 | 01:00 | 31 | 22 | 71 | 30.31 | W | 4 | 0.00 |